Página principal
METAR-TAF:

METAR-TAF

Aeroportos :

Sevilha, Espanha

Aeroporto de Sevilha

latitude: 37-25N, longitude: 005-54W, altura: 34 m

Observação actual do tempo

O boletim foi feito há 4 horas e 22 minutos, às 00:30 UTC
Vento 5 kt de nor-nordeste
Temperatura 8°C
Humidade 57%
Pressão 1009 hPa
Visibilidade 10 km ou mais
sem nuvens abaixo de 1500 metros e sem cumulonimbus

METAR: LEZL 220030Z 03005KT CAVOK 08/M00 Q1009 NOSIG

Hora: 05:52 (04:52 UTC)

Previsão

O boletim foi feito há 8 horas e 52 minutos, às 20:00 UTC
Previsão válida de 21 às 21 UTC a 22 às 21 UTC
Vento 6 kt de nor-nordeste
Visibilidade 10 km ou mais
sem nuvens abaixo de 1500 metros e sem cumulonimbus

TAF: LEZL 212000Z 2121/2221 03006KT CAVOK TX18/2215Z TN04/2207Z

Observações e previsões do tempo de mais de 4000 aeroportos (mensagens METAR e TAF).

As estações disponíveis são os pontos amarelos e vermelhos sobre o mapa.

Mova o rato sobre o mapa para ver o nome da estação.

Depois clique no ponto para visualizar as observações e previsões meteorológicas.

Para alterar o mapa : clique nos botões verdes com uma cruz preta para aumentar o zoom; no botão verde com uma pitada de zoom; ou nas setas verdes para mapas adjacentes.


METAR-TAF: